Time;durP1;ratioP1;P1;durP2;ratioP2;P2;SDS_P1;SDS_P2;PMS_P1;PMS_P2;Temp;Humidity;BMP_temperature;BMP_pressure;BME280_temperature;BME280_humidity;BME280_pressure;Samples;Min_cycle;Max_cycle;Signal;HPM_P1;HPM_P2
2023/02/06 00:01:28;;;;;;;;;13.00;11.50;;;;;4.68;74.71;103236.84;4991632;28;45579;-71
2023/02/06 00:03:54;;;;;;;;;9.00;9.00;;;;;4.69;74.60;103246.44;4991270;28;46101;-72
2023/02/06 00:06:19;;;;;;;;;10.75;8.25;;;;;4.72;74.83;103249.13;4991663;28;45381;-71
2023/02/06 00:08:44;;;;;;;;;9.50;9.00;;;;;4.70;74.55;103249.91;4991260;28;45678;-72
2023/02/06 00:11:13;;;;;;;;;8.00;7.75;;;;;4.70;74.83;103256.03;4992073;28;45645;-70
2023/02/06 00:13:38;;;;;;;;;5.25;5.25;;;;;4.68;74.90;103261.19;4991559;28;48368;-71
2023/02/06 00:16:04;;;;;;;;;11.25;9.00;;;;;4.67;74.63;103263.78;4991465;28;46639;-72
2023/02/06 00:18:30;;;;;;;;;11.25;10.75;;;;;4.64;74.84;103253.25;4994807;28;45367;-72
2023/02/06 00:20:55;;;;;;;;;8.75;8.25;;;;;4.60;75.02;103252.28;4995622;28;45330;-75
2023/02/06 00:23:21;;;;;;;;;9.25;9.25;;;;;4.57;75.32;103248.72;4991945;28;47737;-71
2023/02/06 00:25:46;;;;;;;;;8.75;8.75;;;;;4.56;75.41;103250.41;4993882;28;45226;-69
2023/02/06 00:28:11;;;;;;;;;9.75;8.50;;;;;4.42;75.60;103234.41;4993662;28;45354;-70
2023/02/06 00:30:37;;;;;;;;;9.00;9.00;;;;;4.47;75.48;103244.94;4994092;28;45322;-72
2023/02/06 00:33:02;;;;;;;;;12.25;11.00;;;;;4.48;75.50;103244.13;4993578;28;46296;-73
2023/02/06 00:35:28;;;;;;;;;9.50;9.50;;;;;4.48;75.36;103244.13;4994848;28;45369;-74
2023/02/06 00:37:53;;;;;;;;;9.25;9.25;;;;;4.47;75.54;103250.16;4995108;28;45316;-71
2023/02/06 00:40:19;;;;;;;;;9.00;9.00;;;;;4.38;75.70;103227.34;4996578;28;45223;-72
2023/02/06 00:42:44;;;;;;;;;8.50;7.50;;;;;4.43;75.49;103249.22;4993523;28;45799;-71
2023/02/06 00:45:09;;;;;;;;;9.00;8.50;;;;;4.45;75.71;103238.81;5009027;28;45316;-73
2023/02/06 00:47:35;;;;;;;;;7.75;6.00;;;;;4.44;75.84;103235.34;4994576;28;45501;-71
2023/02/06 00:50:02;;;;;;;;;8.25;8.25;;;;;4.41;75.97;103232.66;4993688;28;45604;-73
2023/02/06 00:52:27;;;;;;;;;6.50;6.50;;;;;4.42;75.85;103230.91;4993251;28;45909;-72
2023/02/06 00:54:52;;;;;;;;;14.25;11.25;;;;;4.42;75.90;103234.41;4993715;28;45438;-72
2023/02/06 00:57:18;;;;;;;;;8.25;8.25;;;;;4.41;76.37;103229.13;4993566;28;45249;-72
2023/02/06 00:59:43;;;;;;;;;9.00;8.50;;;;;4.39;75.96;103232.59;4993230;28;45591;-71
2023/02/06 01:02:09;;;;;;;;;7.25;6.00;;;;;4.38;75.90;103240.38;4993229;28;45487;-70
2023/02/06 01:04:34;;;;;;;;;9.00;9.00;;;;;4.30;75.86;103234.94;4993191;28;45430;-71
2023/02/06 01:07:00;;;;;;;;;9.25;8.50;;;;;4.21;76.27;103224.25;5008203;28;45332;-71
2023/02/06 01:09:25;;;;;;;;;12.75;7.25;;;;;4.26;76.32;103235.69;4994728;28;45814;-70
2023/02/06 01:11:51;;;;;;;;;12.00;9.75;;;;;4.32;76.25;103245.41;4994576;28;46063;-70
2023/02/06 01:14:16;;;;;;;;;7.50;7.50;;;;;4.28;76.33;103243.56;4993762;28;45391;-70
2023/02/06 01:16:42;;;;;;;;;8.75;7.75;;;;;4.28;76.01;103244.44;4993121;28;45365;-70
2023/02/06 01:19:07;;;;;;;;;15.50;14.75;;;;;4.24;76.47;103233.06;4993325;28;45238;-71
2023/02/06 01:21:32;;;;;;;;;11.00;7.50;;;;;4.29;76.38;103237.50;4993295;28;45930;-71
2023/02/06 01:23:58;;;;;;;;;7.50;7.50;;;;;4.26;76.70;103234.81;4992679;28;45348;-73
2023/02/06 01:26:28;;;;;;;;;10.25;9.25;;;;;4.03;77.04;103201.13;4996695;28;45731;-72
2023/02/06 01:28:54;;;;;;;;;9.50;9.00;;;;;4.08;76.75;103218.69;4999615;28;45310;-71
2023/02/06 01:31:23;;;;;;;;;7.75;7.25;;;;;4.20;76.62;103238.97;4994631;28;45414;-71
2023/02/06 01:33:49;;;;;;;;;9.00;9.00;;;;;4.19;76.79;103242.41;4998980;28;45385;-72
2023/02/06 01:36:15;;;;;;;;;5.75;5.75;;;;;4.16;77.04;103236.25;4997653;28;45381;-71
2023/02/06 01:38:41;;;;;;;;;7.75;5.00;;;;;4.14;76.59;103224.91;4993355;28;45434;-69
2023/02/06 01:41:08;;;;;;;;;7.75;7.75;;;;;4.12;76.91;103227.44;4993114;28;45394;-70
2023/02/06 01:43:36;;;;;;;;;7.00;7.00;;;;;4.11;77.45;103230.03;4991575;28;45341;-70
2023/02/06 01:46:02;;;;;;;;;6.75;4.50;;;;;4.07;77.03;103226.44;4992621;27;45404;-72
2023/02/06 01:48:42;;;;;;;;;13.00;6.00;;;;;4.09;77.28;103224.75;4993102;28;45372;-70
2023/02/06 01:51:14;;;;;;;;;4.00;4.00;;;;;4.08;77.15;103220.38;4992409;28;45528;-72
2023/02/06 01:53:42;;;;;;;;;4.50;4.50;;;;;4.06;77.35;103209.94;4992638;28;45381;-71
2023/02/06 01:56:09;;;;;;;;;9.75;8.00;;;;;4.04;77.64;103210.72;4993036;28;45355;-70
2023/02/06 01:58:43;;;;;;;;;6.50;6.50;;;;;4.01;77.15;103215.84;4991842;28;45516;-72
2023/02/06 02:01:08;;;;;;;;;7.00;7.00;;;;;3.98;77.74;103207.94;4995139;28;46635;-74
2023/02/06 02:03:38;;;;;;;;;6.00;4.75;;;;;3.96;77.08;103215.72;4992818;28;45322;-71
2023/02/06 02:06:10;;;;;;;;;9.25;7.50;;;;;3.93;77.50;103211.28;4991929;28;45725;-73
2023/02/06 02:08:38;;;;;;;;;6.00;6.00;;;;;3.94;77.80;103218.25;4993078;28;45195;-73
2023/02/06 02:11:06;;;;;;;;;7.00;7.00;;;;;3.91;77.73;103215.56;4992476;28;46021;-73
2023/02/06 02:13:33;;;;;;;;;15.75;11.25;;;;;3.90;78.05;103212.94;4992749;28;45383;-70
2023/02/06 02:16:24;;;;;;;;;9.25;8.00;;;;;3.90;78.09;103207.72;4992404;28;45405;-72
2023/02/06 02:19:00;;;;;;;;;9.25;9.25;;;;;3.89;78.16;103214.63;4994504;28;45567;-74
2023/02/06 02:21:47;;;;;;;;;9.25;8.25;;;;;3.62;78.41;103168.69;4995286;28;45376;-73
2023/02/06 02:24:30;;;;;;;;;8.00;8.00;;;;;3.85;77.97;103204.97;4995590;28;45302;-74
2023/02/06 02:27:39;;;;;;;;;7.25;6.75;;;;;3.85;78.68;103199.75;4995618;28;45354;-73
2023/02/06 02:30:16;;;;;;;;;8.00;8.00;;;;;3.81;78.76;103195.28;4915777;28;45469;-72
2023/02/06 02:32:56;;;;;;;;;8.25;8.00;;;;;3.77;78.51;103189.13;4989177;28;46162;-70
2023/02/06 02:35:37;;;;;;;;;7.25;7.25;;;;;3.74;78.97;103182.94;4995487;28;45430;-72
2023/02/06 02:38:21;;;;;;;;;7.25;7.25;;;;;3.73;78.59;103179.47;5010757;28;45572;-73
2023/02/06 02:40:56;;;;;;;;;7.00;6.25;;;;;3.71;78.57;103173.31;4996912;28;45409;-71
2023/02/06 02:43:42;;;;;;;;;6.00;4.75;;;;;3.69;79.18;103171.50;4997998;28;46383;-73
2023/02/06 02:46:31;;;;;;;;;8.00;8.00;;;;;3.63;79.34;103166.97;4994948;28;45305;-71
2023/02/06 02:49:09;;;;;;;;;11.50;10.75;;;;;3.67;79.32;103173.16;4995394;28;45331;-71
2023/02/06 02:51:37;;;;;;;;;9.50;9.00;;;;;3.62;79.69;103167.81;4995197;28;45446;-74
2023/02/06 02:54:02;;;;;;;;;13.00;11.75;;;;;3.64;79.46;103185.25;5009806;28;48338;-75
2023/02/06 02:56:29;;;;;;;;;10.25;10.25;;;;;3.64;nan;103172.25;4993685;28;46217;-71
2023/02/06 02:59:00;;;;;;;;;7.75;7.75;;;;;3.60;79.45;103166.88;4995093;28;45385;-71
2023/02/06 03:01:32;;;;;;;;;11.50;10.25;;;;;3.64;79.22;103185.25;4994942;28;45351;-73
2023/02/06 03:04:03;;;;;;;;;10.25;10.25;;;;;3.62;79.47;103186.03;4995071;28;45395;-73
2023/02/06 03:06:34;;;;;;;;;8.50;7.75;;;;;3.59;79.48;103180.72;4994198;28;45396;-72
2023/02/06 03:09:31;;;;;;;;;8.75;8.00;;;;;3.60;79.75;103180.78;4995126;28;45388;-73
2023/02/06 03:12:10;;;;;;;;;12.25;10.25;;;;;3.60;80.29;103174.69;4994046;28;45439;-74
2023/02/06 03:14:48;;;;;;;;;12.00;10.00;;;;;3.57;80.36;103170.28;4995656;28;45560;-73
2023/02/06 03:17:21;;;;;;;;;7.75;7.75;;;;;3.62;79.93;103167.81;4995100;28;45407;-74
2023/02/06 03:19:54;;;;;;;;;8.75;8.75;;;;;3.63;80.06;103162.66;4997950;28;45424;-72
2023/02/06 03:22:20;;;;;;;;;11.75;11.50;;;;;3.62;79.71;103157.41;4998112;28;45537;-74
2023/02/06 03:24:46;;;;;;;;;9.75;9.75;;;;;3.61;80.32;103161.72;4995337;28;45749;-71
2023/02/06 03:27:16;;;;;;;;;10.25;8.25;;;;;3.60;80.06;103149.56;4995701;28;45355;-74
2023/02/06 03:29:43;;;;;;;;;5.75;5.75;;;;;3.53;80.54;103142.41;4995698;28;45247;-72
2023/02/06 03:32:22;;;;;;;;;9.00;8.25;;;;;3.50;80.35;103139.72;4996828;28;45674;-75
2023/02/06 03:35:03;;;;;;;;;13.75;12.00;;;;;3.40;80.73;103130.72;4995151;28;46151;-75
2023/02/06 03:37:28;;;;;;;;;10.50;9.00;;;;;3.49;80.21;103153.56;4994645;28;45330;-73
2023/02/06 03:39:57;;;;;;;;;10.75;8.50;;;;;3.46;80.33;103136.09;4994887;28;45358;-74
2023/02/06 03:42:24;;;;;;;;;9.00;9.00;;;;;3.38;80.31;103129.78;4994409;28;45519;-74
2023/02/06 03:44:58;;;;;;;;;7.75;7.75;;;;;3.39;80.62;103130.69;4994131;28;45360;-75
2023/02/06 03:47:25;;;;;;;;;9.00;9.00;;;;;3.30;81.10;103126.06;4992805;28;45425;-73
2023/02/06 03:49:53;;;;;;;;;9.00;7.75;;;;;3.38;81.51;103142.78;4994228;28;45431;-74
2023/02/06 03:52:24;;;;;;;;;11.50;9.25;;;;;3.33;81.13;103136.56;4994498;28;45597;-73
2023/02/06 03:55:01;;;;;;;;;9.75;9.75;;;;;3.34;80.74;103139.22;4972130;28;46690;-72
2023/02/06 03:57:28;;;;;;;;;9.25;9.00;;;;;3.40;80.67;103146.31;4972266;28;45634;-72
2023/02/06 03:59:53;;;;;;;;;12.00;12.00;;;;;3.37;80.88;103138.44;4973778;28;45316;-73
2023/02/06 04:02:20;;;;;;;;;8.75;8.75;;;;;3.34;81.04;103139.22;4974469;28;45222;-74
2023/02/06 04:04:46;;;;;;;;;12.50;12.25;;;;;3.32;81.19;103137.41;4974181;28;45456;-73
2023/02/06 04:07:15;;;;;;;;;12.50;12.00;;;;;3.32;80.86;103140.91;4974812;28;45600;-74
2023/02/06 04:09:41;;;;;;;;;9.00;9.00;;;;;3.32;81.18;103138.31;4974704;28;45286;-75
2023/02/06 04:12:07;;;;;;;;;9.00;9.00;;;;;3.29;81.40;103130.41;4975104;28;45278;-75
2023/02/06 04:14:35;;;;;;;;;11.75;10.25;;;;;3.29;81.32;103127.81;4974678;28;46034;-76
2023/02/06 04:17:01;;;;;;;;;11.75;11.00;;;;;3.29;81.41;103113.91;4974945;28;45450;-74
2023/02/06 04:19:26;;;;;;;;;8.50;8.50;;;;;3.25;81.02;103120.75;4973819;28;45410;-73
2023/02/06 04:21:51;;;;;;;;;9.00;7.00;;;;;3.26;80.87;103124.19;4974218;28;45624;-72
2023/02/06 04:24:17;;;;;;;;;13.75;11.00;;;;;3.25;81.00;103123.34;4973525;28;61869;-74
2023/02/06 04:26:42;;;;;;;;;5.00;4.25;;;;;3.18;81.02;103118.75;4975465;28;45328;-70
2023/02/06 04:29:07;;;;;;;;;8.75;8.25;;;;;3.20;81.34;103124.91;4973650;28;45363;-71
2023/02/06 04:31:33;;;;;;;;;8.50;8.50;;;;;3.16;81.58;103120.41;4974613;28;45572;-71
2023/02/06 04:33:58;;;;;;;;;6.50;6.50;;;;;3.22;81.37;103124.09;4973822;28;46083;-70
2023/02/06 04:36:23;;;;;;;;;8.50;8.00;;;;;3.20;80.92;103112.78;4975000;28;45366;-73
2023/02/06 04:38:49;;;;;;;;;8.50;8.00;;;;;3.17;81.06;103103.97;4975863;28;45394;-71
2023/02/06 04:41:15;;;;;;;;;12.25;9.50;;;;;3.13;81.64;103104.72;4973269;28;45458;-70
2023/02/06 04:43:40;;;;;;;;;7.75;7.50;;;;;3.14;81.14;103106.47;4973632;28;45417;-71
2023/02/06 04:46:05;;;;;;;;;15.25;10.25;;;;;3.09;81.71;103092.44;4973988;28;45345;-72
2023/02/06 04:48:31;;;;;;;;;13.25;12.00;;;;;3.10;81.45;103100.31;4973991;28;45287;-72
2023/02/06 04:50:56;;;;;;;;;9.00;7.25;;;;;3.10;81.71;103099.41;4974261;28;51299;-74
2023/02/06 04:53:21;;;;;;;;;8.50;8.50;;;;;3.11;81.24;103109.88;4974979;28;45954;-70
2023/02/06 04:55:47;;;;;;;;;7.00;7.00;;;;;3.17;81.43;103116.97;4972342;28;45688;-71
2023/02/06 04:58:12;;;;;;;;;8.00;8.00;;;;;3.16;81.00;103120.41;4973698;28;45400;-72
2023/02/06 05:00:37;;;;;;;;;12.25;11.50;;;;;3.09;81.78;103105.44;4974171;28;45593;-73
2023/02/06 05:03:03;;;;;;;;;10.50;8.50;;;;;3.14;81.79;103103.88;4974193;28;45358;-70
2023/02/06 05:05:28;;;;;;;;;11.25;10.50;;;;;3.14;81.65;103104.78;4975479;28;45204;-71
2023/02/06 05:07:53;;;;;;;;;7.75;7.75;;;;;3.12;81.08;103098.66;4974537;28;45228;-73
2023/02/06 05:10:19;;;;;;;;;8.00;8.00;;;;;3.12;81.38;103106.44;4973871;28;45265;-72
2023/02/06 05:12:46;;;;;;;;;8.50;8.50;;;;;3.11;81.44;103095.97;4972465;28;46986;-72
2023/02/06 05:15:11;;;;;;;;;8.00;8.00;;;;;2.99;81.17;103081.75;4973411;28;45469;-70
2023/02/06 05:17:37;;;;;;;;;10.75;10.75;;;;;3.11;81.21;103095.97;4974512;28;45291;-71
2023/02/06 05:20:03;;;;;;;;;7.50;7.50;;;;;3.02;80.54;103081.00;4973951;28;45540;-70
2023/02/06 05:22:29;;;;;;;;;11.50;8.00;;;;;3.13;80.90;103102.13;4973275;28;46711;-71
2023/02/06 05:24:54;;;;;;;;;8.00;8.00;;;;;3.12;81.33;103100.34;4973334;28;45323;-73
2023/02/06 05:27:19;;;;;;;;;10.75;6.00;;;;;3.02;81.17;103081.84;4973227;28;45335;-71
2023/02/06 05:29:45;;;;;;;;;11.50;10.00;;;;;3.13;81.24;103103.00;4971934;28;45576;-69
2023/02/06 05:32:10;;;;;;;;;7.50;7.50;;;;;3.14;81.05;103098.69;4972886;28;46122;-70
2023/02/06 05:34:35;;;;;;;;;9.25;9.25;;;;;3.06;81.09;103090.66;4973447;28;45520;-71
2023/02/06 05:37:01;;;;;;;;;8.00;8.00;;;;;3.06;81.40;103094.13;4973167;28;45227;-71
2023/02/06 05:39:26;;;;;;;;;8.00;8.00;;;;;3.10;80.90;103102.91;4973473;28;45444;-71
2023/02/06 05:41:52;;;;;;;;;13.00;9.25;;;;;3.07;81.59;103106.28;4972754;28;46329;-70
2023/02/06 05:44:17;;;;;;;;;8.75;8.75;;;;;3.11;80.54;103111.59;4972836;28;45196;-71
2023/02/06 05:46:43;;;;;;;;;5.00;3.50;;;;;3.01;81.50;103105.22;4971842;28;45280;-73
2023/02/06 05:49:08;;;;;;;;;7.00;7.00;;;;;3.08;80.94;103117.59;4974654;28;45488;-71
2023/02/06 05:51:34;;;;;;;;;8.00;8.00;;;;;3.07;80.60;103114.09;4979025;28;45374;-70
2023/02/06 05:53:59;;;;;;;;;9.25;9.25;;;;;3.06;80.64;103114.94;4977054;28;45256;-72
2023/02/06 05:56:25;;;;;;;;;11.00;7.50;;;;;3.07;80.81;103119.28;4976494;28;45268;-72
2023/02/06 05:58:50;;;;;;;;;9.25;9.25;;;;;3.04;81.37;103114.00;4976258;28;45587;-71
2023/02/06 06:01:15;;;;;;;;;7.75;7.75;;;;;3.07;80.94;103113.22;4975707;28;45483;-70
2023/02/06 06:03:40;;;;;;;;;11.25;8.50;;;;;3.00;80.58;103112.13;4975958;28;47978;-71
2023/02/06 06:06:06;;;;;;;;;7.50;7.00;;;;;3.03;80.63;103133.03;4977335;28;45417;-70
2023/02/06 06:08:32;;;;;;;;;8.00;8.00;;;;;2.97;81.12;103125.03;4976533;28;45536;-71
2023/02/06 06:11:00;;;;;;;;;12.75;9.00;;;;;2.95;80.81;103126.69;4974164;28;47143;-70
2023/02/06 06:13:25;;;;;;;;;11.75;10.25;;;;;2.94;80.64;103131.88;4974109;28;45471;-69
2023/02/06 06:15:51;;;;;;;;;8.00;7.25;;;;;2.90;81.46;103123.97;4975573;28;45461;-72
2023/02/06 06:18:18;;;;;;;;;8.00;8.00;;;;;2.92;81.47;103137.00;4975969;28;45579;-71
2023/02/06 06:20:43;;;;;;;;;9.25;9.25;;;;;2.90;81.61;103138.66;4975130;28;46207;-71
2023/02/06 06:23:08;;;;;;;;;10.50;10.50;;;;;2.88;80.89;103138.63;4975679;28;45276;-71
2023/02/06 06:25:35;;;;;;;;;14.25;12.25;;;;;2.79;80.93;103138.31;4974023;28;45512;-72
2023/02/06 06:28:00;;;;;;;;;9.75;9.25;;;;;2.85;81.11;103145.44;4975469;28;45225;-73
2023/02/06 06:30:26;;;;;;;;;9.00;9.00;;;;;2.79;80.82;103133.13;4974144;28;47097;-72
2023/02/06 06:32:52;;;;;;;;;9.25;9.25;;;;;2.82;81.80;103143.63;4975574;28;45311;-71
2023/02/06 06:35:17;;;;;;;;;13.00;10.50;;;;;2.73;81.08;103126.00;4976329;28;45333;-72
2023/02/06 06:37:42;;;;;;;;;9.00;8.50;;;;;2.69;81.09;103128.47;4975647;28;45451;-71
2023/02/06 06:40:08;;;;;;;;;9.00;8.00;;;;;2.73;81.61;103141.59;4974914;28;61478;-73
2023/02/06 06:42:34;;;;;;;;;9.75;9.00;;;;;2.63;82.15;103129.97;4975815;28;45371;-73
2023/02/06 06:44:59;;;;;;;;;9.25;9.25;;;;;2.64;81.23;103130.88;4977807;28;45699;-73
2023/02/06 06:47:24;;;;;;;;;9.75;9.75;;;;;2.67;81.68;103136.19;4977077;28;45572;-71
2023/02/06 06:49:50;;;;;;;;;9.50;9.50;;;;;2.66;81.28;103138.75;4980149;28;57478;-71
2023/02/06 06:52:15;;;;;;;;;10.75;10.75;;;;;2.62;81.98;103141.22;4978615;28;45460;-73
2023/02/06 06:54:40;;;;;;;;;11.50;11.00;;;;;2.62;81.73;103140.34;4975825;28;45362;-70
2023/02/06 06:57:06;;;;;;;;;11.25;11.25;;;;;2.59;82.09;103132.44;4977453;28;45318;-70
2023/02/06 06:59:31;;;;;;;;;12.00;12.00;;;;;2.63;81.08;103135.19;4976892;28;46209;-71
2023/02/06 07:01:57;;;;;;;;;11.75;11.75;;;;;2.53;81.91;103121.84;4975630;28;45311;-73
2023/02/06 07:04:23;;;;;;;;;9.25;9.25;;;;;2.42;81.81;103104.16;4973632;28;45371;-74
2023/02/06 07:06:48;;;;;;;;;10.25;10.25;;;;;2.60;81.73;103123.81;4975374;28;45227;-72
2023/02/06 07:09:13;;;;;;;;;10.50;10.50;;;;;2.36;81.76;103085.78;4975420;28;50790;-70
2023/02/06 07:11:39;;;;;;;;;11.50;11.50;;;;;2.56;82.12;103122.81;4976455;28;45199;-71
2023/02/06 07:14:06;;;;;;;;;7.50;7.00;;;;;2.47;81.65;103115.59;4974677;28;45291;-73
2023/02/06 07:16:31;;;;;;;;;11.25;11.00;;;;;2.54;82.03;103131.41;4976108;28;45513;-72
2023/02/06 07:18:56;;;;;;;;;11.25;10.50;;;;;2.52;81.59;103120.94;4975636;28;46330;-71
2023/02/06 07:21:21;;;;;;;;;14.00;12.50;;;;;2.53;81.96;103119.25;4973484;28;45402;-69
2023/02/06 07:23:47;;;;;;;;;12.50;11.75;;;;;2.55;81.91;103128.84;4965493;28;45503;-69
2023/02/06 07:26:12;;;;;;;;;12.00;12.00;;;;;2.55;81.85;103123.66;4975198;28;45443;-71
2023/02/06 07:28:38;;;;;;;;;14.25;12.25;;;;;2.56;82.15;103130.59;4972395;28;45437;-70
2023/02/06 07:31:05;;;;;;;;;9.50;9.50;;;;;2.56;82.04;103121.94;4980096;28;45500;-70
2023/02/06 07:33:31;;;;;;;;;12.25;12.25;;;;;2.57;81.73;103132.38;5003604;28;45427;-75
2023/02/06 07:35:57;;;;;;;;;9.50;9.50;;;;;2.50;81.27;103113.94;4973334;28;45298;-75
2023/02/06 07:38:22;;;;;;;;;14.00;13.50;;;;;2.54;81.91;103140.06;4974216;28;46213;-73
2023/02/06 07:40:47;;;;;;;;;16.50;15.50;;;;;2.55;82.32;103146.16;4976362;28;45339;-76
2023/02/06 07:43:13;;;;;;;;;14.25;14.25;;;;;2.55;81.66;103143.56;4974827;28;45310;-71
2023/02/06 07:45:39;;;;;;;;;12.00;12.00;;;;;2.47;82.53;103139.00;4973906;28;45645;-74
2023/02/06 07:48:05;;;;;;;;;13.00;13.00;;;;;2.54;82.44;103158.25;5028383;28;46815;-72
2023/02/06 07:50:31;;;;;;;;;13.00;13.00;;;;;2.52;82.01;103143.47;4992337;28;45474;-76
2023/02/06 07:52:56;;;;;;;;;13.50;11.50;;;;;2.51;82.67;103147.75;5047964;27;45377;-71
2023/02/06 07:55:21;;;;;;;;;13.00;12.00;;;;;2.53;82.56;103145.22;5041468;28;45555;-73
2023/02/06 07:57:47;;;;;;;;;15.75;14.00;;;;;2.51;82.02;103137.38;4963817;28;45501;-72
2023/02/06 08:00:13;;;;;;;;;12.00;11.00;;;;;2.58;82.33;103138.47;4951608;28;45759;-73
2023/02/06 08:02:39;;;;;;;;;11.50;11.50;;;;;2.63;81.21;103144.72;4951750;28;45451;-75
2023/02/06 08:05:05;;;;;;;;;10.50;10.00;;;;;2.60;81.23;103135.06;4953064;28;45730;-73
2023/02/06 08:07:30;;;;;;;;;9.50;9.50;;;;;2.66;81.70;103134.41;4952484;28;45407;-72
2023/02/06 08:09:55;;;;;;;;;16.75;13.75;;;;;2.68;81.68;103137.09;4951847;28;45815;-77
2023/02/06 08:12:21;;;;;;;;;14.00;14.00;;;;;2.70;81.03;103130.22;4954647;28;45367;-73
2023/02/06 08:14:46;;;;;;;;;12.50;12.50;;;;;2.68;81.29;103132.75;4953016;28;45257;-72
2023/02/06 08:17:12;;;;;;;;;17.50;17.00;;;;;2.73;81.48;103125.13;4954544;28;45400;-72
2023/02/06 08:19:38;;;;;;;;;19.50;18.00;;;;;2.78;80.91;103140.03;4954926;28;45359;-70
2023/02/06 08:22:03;;;;;;;;;16.75;14.50;;;;;2.79;81.63;103138.31;4955746;28;45516;-72
2023/02/06 08:24:29;;;;;;;;;13.00;12.75;;;;;2.85;81.64;103141.13;4953772;28;45572;-72
2023/02/06 08:26:54;;;;;;;;;18.50;18.00;;;;;2.89;81.06;103131.69;4954847;28;46057;-70
2023/02/06 08:29:20;;;;;;;;;12.25;12.25;;;;;2.96;81.03;103125.88;4953347;28;45296;-71
2023/02/06 08:31:45;;;;;;;;;14.25;13.75;;;;;3.03;81.62;103117.44;4955988;28;45354;-72
2023/02/06 08:34:13;;;;;;;;;16.25;16.25;;;;;3.07;82.04;103115.81;4958020;28;45339;-70
2023/02/06 08:36:40;;;;;;;;;18.00;18.00;;;;;3.15;80.52;103124.75;4955770;28;47447;-71
2023/02/06 08:39:06;;;;;;;;;14.25;14.25;;;;;3.20;80.43;103128.38;4953743;28;45560;-75
2023/02/06 08:41:38;;;;;;;;;11.50;11.50;;;;;3.24;79.56;103128.47;4954732;28;45246;-73
2023/02/06 08:44:06;;;;;;;;;14.00;13.50;;;;;3.24;79.48;103121.56;4953277;28;45317;-74
2023/02/06 08:46:32;;;;;;;;;12.50;12.50;;;;;3.20;79.89;103110.16;4954787;28;46394;-74
2023/02/06 08:49:03;;;;;;;;;13.25;13.00;;;;;3.29;80.11;103121.69;4953707;28;45258;-72
2023/02/06 08:51:29;;;;;;;;;17.00;17.00;;;;;3.34;80.15;103112.31;4954328;28;45385;-73
2023/02/06 08:54:00;;;;;;;;;17.25;16.50;;;;;3.32;79.04;103098.38;4954349;28;45502;-72
2023/02/06 08:56:27;;;;;;;;;13.25;13.25;;;;;3.33;79.62;103094.94;4954631;28;46164;-70
2023/02/06 08:58:52;;;;;;;;;14.25;14.25;;;;;3.41;79.61;103092.59;4954619;28;45278;-70
2023/02/06 09:01:19;;;;;;;;;13.00;13.00;;;;;3.43;79.95;103090.91;4954513;28;45376;-71
2023/02/06 09:03:45;;;;;;;;;20.00;17.00;;;;;3.50;79.27;103092.84;4954317;28;45575;-71
2023/02/06 09:06:12;;;;;;;;;13.75;13.75;;;;;3.49;79.43;103081.56;4954038;28;46261;-70
2023/02/06 09:08:38;;;;;;;;;17.00;17.00;;;;;3.58;79.39;103090.47;4954129;28;45273;-73
2023/02/06 09:11:08;;;;;;;;;18.25;18.25;;;;;3.61;79.14;103091.47;4954619;28;45391;-71
2023/02/06 09:13:34;;;;;;;;;19.25;19.25;;;;;3.65;79.17;103098.50;4954881;28;45489;-72
2023/02/06 09:16:00;;;;;;;;;19.25;17.00;;;;;3.68;78.69;103095.09;4953125;28;46079;-71
2023/02/06 09:18:25;;;;;;;;;15.50;15.50;;;;;3.75;78.54;103093.56;4955595;28;45379;-70
2023/02/06 09:20:52;;;;;;;;;14.50;13.75;;;;;3.78;78.23;103101.47;4955798;28;45351;-70
2023/02/06 09:23:17;;;;;;;;;16.75;14.00;;;;;3.78;78.32;103091.97;4954700;28;45239;-71
2023/02/06 09:25:43;;;;;;;;;13.00;13.00;;;;;3.81;78.66;103101.56;4954022;28;46468;-72
2023/02/06 09:28:10;;;;;;;;;15.50;15.50;;;;;3.84;78.24;103099.03;4953279;28;45288;-72
2023/02/06 09:30:35;;;;;;;;;19.75;15.75;;;;;3.80;77.83;103085.06;4953673;28;45284;-70
2023/02/06 09:33:00;;;;;;;;;20.00;14.00;;;;;3.87;77.84;103093.91;4954237;28;45228;-71
2023/02/06 09:35:25;;;;;;;;;21.50;19.50;;;;;3.78;77.59;103083.25;4953384;28;46064;-70
2023/02/06 09:37:51;;;;;;;;;18.00;17.25;;;;;3.87;77.39;103091.31;4954375;28;48994;-72
2023/02/06 09:40:23;;;;;;;;;14.25;14.25;;;;;3.94;77.24;103100.19;4955485;28;45842;-71
2023/02/06 09:42:49;;;;;;;;;18.25;16.25;;;;;3.93;77.24;103095.84;4938210;28;45534;-70
2023/02/06 09:45:19;;;;;;;;;18.00;17.75;;;;;3.87;76.79;103091.31;4954763;28;46217;-70
2023/02/06 09:47:50;;;;;;;;;20.25;19.75;;;;;3.99;77.08;103098.59;4954965;28;45366;-73
2023/02/06 09:50:15;;;;;;;;;25.25;23.75;;;;;4.03;77.12;103094.34;4957506;28;45350;-72
2023/02/06 09:52:43;;;;;;;;;19.50;18.50;;;;;4.10;77.28;103101.50;4956359;28;45309;-76
2023/02/06 09:55:24;;;;;;;;;16.25;16.25;;;;;4.17;76.69;103106.03;4954550;28;47262;-73
2023/02/06 09:58:15;;;;;;;;;13.50;13.25;;;;;4.27;76.57;103095.88;4953544;28;45228;-74
2023/02/06 10:00:49;;;;;;;;;17.25;17.25;;;;;4.34;76.65;103095.19;4953387;28;45327;-74
2023/02/06 10:03:52;;;;;;;;;18.00;17.50;;;;;4.50;76.41;103099.97;4953212;28;45705;-73
2023/02/06 10:06:47;;;;;;;;;17.00;15.00;;;;;4.65;75.53;103095.97;4953924;28;46313;-73
2023/02/06 10:09:19;;;;;;;;;17.25;17.25;;;;;4.76;74.98;103102.34;4953738;28;45341;-76
2023/02/06 10:11:50;;;;;;;;;13.75;13.75;;;;;4.83;74.71;103092.97;4953662;28;45299;-70
2023/02/06 10:14:22;;;;;;;;;17.50;17.25;;;;;4.95;73.99;103097.56;4954541;28;45332;-71
2023/02/06 10:16:51;;;;;;;;;16.25;15.00;;;;;5.05;73.77;103102.16;4954575;28;45747;-72
2023/02/06 10:19:33;;;;;;;;;13.75;12.25;;;;;5.09;73.67;103083.13;4953665;28;45199;-74
2023/02/06 10:22:11;;;;;;;;;15.00;15.00;;;;;5.29;73.02;103106.16;4957054;28;45362;-75
2023/02/06 10:24:48;;;;;;;;;19.00;17.00;;;;;5.43;72.65;103105.63;4953085;28;45355;-73
2023/02/06 10:27:14;;;;;;;;;19.00;19.00;;;;;5.55;73.04;103105.91;4954971;28;46554;-76
2023/02/06 10:29:41;;;;;;;;;18.50;18.00;;;;;5.64;71.93;103097.34;4953344;28;54247;-76
2023/02/06 10:32:49;;;;;;;;;18.50;17.00;;;;;5.67;71.36;103095.72;4954508;28;45256;-73
2023/02/06 10:35:35;;;;;;;;;18.25;17.75;;;;;5.68;71.30;103096.56;4953154;28;45381;-76
2023/02/06 10:38:15;;;;;;;;;15.25;15.25;;;;;5.70;71.46;103076.59;4953106;28;46193;-71
2023/02/06 10:41:25;;;;;;;;;18.75;18.00;;;;;5.84;71.05;103098.66;4956155;28;45356;-71
2023/02/06 10:43:59;;;;;;;;;19.00;17.25;;;;;5.83;70.90;103080.34;4984088;28;45426;-74
2023/02/06 10:46:37;;;;;;;;;15.50;15.00;;;;;5.82;70.06;103082.06;4957337;28;45295;-71
2023/02/06 10:49:31;;;;;;;;;16.75;16.50;;;;;5.84;70.42;103080.38;4957851;28;46087;-72
2023/02/06 10:52:00;;;;;;;;;20.00;20.00;;;;;5.81;70.34;103055.94;4951826;28;45336;-73
2023/02/06 10:54:34;;;;;;;;;23.00;22.00;;;;;5.90;70.45;103071.78;4954890;28;45515;-71
2023/02/06 10:57:01;;;;;;;;;23.75;23.25;;;;;5.90;69.08;103070.91;4955924;28;45548;-74
2023/02/06 10:59:27;;;;;;;;;21.25;19.75;;;;;5.83;70.01;103072.50;4955074;28;47632;-71
2023/02/06 11:02:17;;;;;;;;;16.25;16.25;;;;;5.75;69.83;103069.72;4955003;28;45380;-72
2023/02/06 11:05:08;;;;;;;;;24.25;22.00;;;;;5.68;70.11;103076.56;4954655;28;45281;-72
2023/02/06 11:07:40;;;;;;;;;17.00;16.25;;;;;5.70;70.64;103074.88;4956779;28;45485;-70
2023/02/06 11:10:13;;;;;;;;;17.50;17.50;;;;;5.73;70.31;103071.44;4956192;28;45498;-72
2023/02/06 11:12:46;;;;;;;;;27.25;24.50;;;;;5.84;70.13;103076.88;4956679;28;45437;-74
2023/02/06 11:15:26;;;;;;;;;32.50;32.25;;;;;5.90;70.09;103066.56;4957087;28;45340;-70
2023/02/06 11:17:53;;;;;;;;;26.25;26.00;;;;;6.01;69.48;103073.75;4958861;28;45463;-72
2023/02/06 11:20:23;;;;;;;;;20.75;20.75;;;;;6.08;68.79;103070.41;4957997;28;46105;-74
2023/02/06 11:22:49;;;;;;;;;24.00;21.00;;;;;6.17;69.29;103074.94;4957838;28;45347;-71
2023/02/06 11:25:26;;;;;;;;;40.00;36.50;;;;;6.29;69.46;103064.69;4956205;28;45377;-76
2023/02/06 11:27:52;;;;;;;;;23.25;22.50;;;;;6.38;69.11;103058.75;4955982;28;45260;-72
2023/02/06 11:30:34;;;;;;;;;21.75;21.75;;;;;6.48;68.49;103055.44;4956192;28;46324;-73
2023/02/06 11:33:16;;;;;;;;;23.50;23.25;;;;;6.56;68.04;103059.06;4955650;28;45324;-72